createdAt,value
2018-05-04T19:49:50.548Z,14.40
2018-05-04T19:52:18.204Z,14.50
2018-05-04T19:54:45.863Z,14.40
2018-05-04T19:57:13.573Z,14.30
2018-05-04T19:59:41.224Z,14.30
2018-05-04T20:02:08.871Z,14.20
2018-05-04T20:04:37.260Z,14.20
2018-05-04T20:07:05.749Z,14.10
2018-05-04T20:09:33.305Z,14.10
2018-05-04T20:12:08.830Z,14.20
2018-05-04T20:14:36.473Z,14.20
2018-05-04T20:17:04.099Z,14.20
2018-05-04T20:19:31.758Z,14.10
2018-05-04T20:21:59.423Z,13.90
2018-05-04T20:24:27.825Z,13.60
2018-05-04T20:26:55.467Z,13.60
2018-05-04T20:29:23.118Z,13.50
2018-05-04T20:31:50.750Z,13.50
2018-05-04T20:34:18.390Z,13.50
2018-05-04T20:36:46.034Z,13.50
2018-05-04T20:39:13.774Z,13.60
2018-05-04T20:41:41.438Z,13.50
2018-05-04T20:44:09.123Z,13.40
2018-05-04T20:46:36.707Z,13.30
2018-05-04T20:49:04.363Z,13.30
2018-05-04T20:51:32.019Z,13.30
2018-05-04T20:53:59.655Z,13.20
2018-05-04T20:56:27.468Z,13.20
2018-05-04T20:58:55.147Z,13.20
2018-05-04T21:01:25.581Z,13.00
2018-05-04T21:03:53.307Z,13.00
2018-05-04T21:06:20.951Z,13.00
2018-05-04T21:08:48.586Z,12.90
2018-05-04T21:11:16.207Z,12.90
2018-05-04T21:13:43.823Z,12.90
2018-05-04T21:16:11.448Z,12.90
2018-05-04T21:18:39.836Z,12.90
2018-05-04T21:21:07.463Z,12.90
2018-05-04T21:23:35.082Z,12.80
2018-05-04T21:26:02.707Z,12.80
2018-05-04T21:28:30.334Z,12.80
2018-05-04T21:30:57.947Z,12.90
2018-05-04T21:33:25.575Z,12.80
2018-05-04T21:35:53.213Z,12.70
2018-05-04T21:38:20.816Z,12.60
2018-05-04T21:40:48.439Z,12.50
2018-05-04T21:43:16.062Z,12.60
2018-05-04T21:45:43.680Z,12.60
2018-05-04T21:48:11.300Z,12.60
2018-05-04T21:50:38.927Z,12.50
2018-05-04T21:53:06.543Z,12.40
2018-05-04T21:55:34.159Z,12.50
2018-05-04T21:58:01.779Z,12.50
2018-05-04T22:00:29.399Z,12.50
2018-05-04T22:02:57.031Z,12.40
2018-05-04T22:05:24.823Z,12.30
2018-05-04T22:07:52.452Z,12.10
2018-05-04T22:10:20.849Z,12.10
2018-05-04T22:12:48.468Z,12.10
2018-05-04T22:15:16.087Z,11.90
2018-05-04T22:17:43.707Z,11.90
2018-05-04T22:20:11.323Z,11.90
2018-05-04T22:22:38.946Z,11.90
2018-05-04T22:25:06.580Z,11.90
2018-05-04T22:27:34.207Z,11.60
2018-05-04T22:30:01.829Z,11.60
2018-05-04T22:32:29.461Z,11.60
2018-05-04T22:34:57.079Z,11.60
2018-05-04T22:37:24.707Z,11.40
2018-05-04T22:39:52.327Z,11.30
2018-05-04T22:42:30.588Z,11.30
2018-05-04T22:44:58.211Z,11.40
2018-05-04T22:47:26.595Z,11.30
2018-05-04T22:49:54.214Z,11.30
2018-05-04T22:52:21.839Z,11.20
2018-05-04T22:54:49.458Z,11.00
2018-05-04T22:57:17.083Z,11.00
2018-05-04T22:59:44.711Z,10.80
2018-05-04T23:02:12.443Z,10.80
2018-05-04T23:04:40.028Z,10.80
2018-05-04T23:07:07.683Z,10.70
2018-05-04T23:09:35.301Z,10.70
2018-05-04T23:12:02.922Z,10.80
2018-05-04T23:14:30.539Z,10.80
2018-05-04T23:16:58.166Z,10.90
2018-05-04T23:19:25.782Z,10.90
2018-05-04T23:21:53.407Z,10.90
2018-05-04T23:24:21.035Z,10.80
2018-05-04T23:26:48.662Z,10.80
2018-05-04T23:29:16.283Z,10.70
2018-05-04T23:31:43.904Z,10.70
2018-05-04T23:34:11.520Z,10.50
2018-05-04T23:36:39.146Z,10.40
2018-05-04T23:39:06.767Z,10.40
2018-05-04T23:41:34.390Z,10.30
2018-05-04T23:44:02.008Z,10.30
2018-05-04T23:46:29.665Z,10.40
2018-05-04T23:48:58.048Z,10.30
2018-05-04T23:51:25.663Z,10.30
2018-05-04T23:53:53.286Z,10.30
2018-05-04T23:56:21.129Z,10.30
2018-05-04T23:58:48.707Z,10.30
